Hovedside
METAR-TAF:

METAR-TAF

Lufthavner :

Bangkok, Thailand

breddegrad: 13-54-45N, lengdegrad: 100-36-24E, høyde over havet: 4 m

Gjeldene værobservasjon

Denne rapporten ble laget for 33 minutter siden, klokken 18:00 UTC
Vind 7 kt fra Sør-sørøst
Temperatur 30°C
Luftfuktighet 79%
Trykk 1007 hPa
Sikt 10 km eller mer
Få skyer i en høyde av 2500 ft

METAR: VTBD 241800Z 16007KT 9999 FEW025 30/26 Q1007 NOSIG

Tid: 01:33 (18:33 UTC)

Varsel

Denne rapporten ble laget for 1 time og 33 minutter siden, klokken 17:00 UTC
Varsel gyldig fra 24. klokken 18 UTC til 25. klokken 24 UTC
Vind 8 kt fra Sør
Sikt 10 km eller mer
Få skyer i en høyde av 2000 ft
Blir
fra 24. klokken 21 UTC til 24. klokken 23 UTC
Vind 5 kt fra Øst-sørøst
Sikt: 8000 m
Blir
fra 25. klokken 01 UTC til 25. klokken 03 UTC
Vind 8 kt fra Sør
Sikt 10 km eller mer

TAF: VTBD 241700Z 2418/2524 18008KT 9999 FEW020 BECMG 2421/2423 12005KT 8000 BECMG 2501/2503 19008KT 9999

Værobservasjoner og værvarsel for over 4000 flyplasser (METAR- og TAF-rapporter).

Tilgjengelige stasjoner er representert av de røde og gule prikkene på kartet.

Hold musepekeren over prikken for å se navnet på stasjonen.

Klikk så for å se værobservasjoner og -varsler.

For å forandre kartet kan du klikke på den grønne knappen med svart kryss for å zoome inn, på den grønne knappen med strek for å zoome ut, eller på de grønne pilene for å se tilstøtende kart.


METAR-TAF: